sensor_id;sensor_type;location;lat;lon;timestamp;temperature;humidity
23010;DHT22;11671;49.990;8.028;2023-03-01T00:01:23;1.40;99.90
23010;DHT22;11671;49.990;8.028;2023-03-01T00:03:49;1.30;99.90
23010;DHT22;11671;49.990;8.028;2023-03-01T00:06:16;1.30;99.90
23010;DHT22;11671;49.990;8.028;2023-03-01T00:08:41;1.10;99.90
23010;DHT22;11671;49.990;8.028;2023-03-01T00:11:15;1.20;99.90
23010;DHT22;11671;49.990;8.028;2023-03-01T00:13:43;1.20;99.90
23010;DHT22;11671;49.990;8.028;2023-03-01T00:16:15;1.30;99.90
23010;DHT22;11671;49.990;8.028;2023-03-01T00:18:41;1.30;99.90
23010;DHT22;11671;49.990;8.028;2023-03-01T00:21:07;1.30;99.90
23010;DHT22;11671;49.990;8.028;2023-03-01T00:23:34;1.30;99.90
23010;DHT22;11671;49.990;8.028;2023-03-01T00:26:00;1.30;99.90
23010;DHT22;11671;49.990;8.028;2023-03-01T00:28:26;1.30;99.90
23010;DHT22;11671;49.990;8.028;2023-03-01T00:30:51;1.30;99.90
23010;DHT22;11671;49.990;8.028;2023-03-01T00:33:17;1.30;99.90
23010;DHT22;11671;49.990;8.028;2023-03-01T00:35:43;1.30;99.90
23010;DHT22;11671;49.990;8.028;2023-03-01T00:38:09;1.20;99.90
23010;DHT22;11671;49.990;8.028;2023-03-01T00:40:35;1.20;99.90
23010;DHT22;11671;49.990;8.028;2023-03-01T00:43:02;1.20;99.90
23010;DHT22;11671;49.990;8.028;2023-03-01T00:45:28;1.30;99.90
23010;DHT22;11671;49.990;8.028;2023-03-01T00:47:56;1.30;99.90
23010;DHT22;11671;49.990;8.028;2023-03-01T00:50:23;1.30;99.90
23010;DHT22;11671;49.990;8.028;2023-03-01T00:52:52;1.30;99.90
23010;DHT22;11671;49.990;8.028;2023-03-01T00:55:18;1.40;99.90
23010;DHT22;11671;49.990;8.028;2023-03-01T00:57:43;1.30;99.90
23010;DHT22;11671;49.990;8.028;2023-03-01T01:00:10;1.30;99.90
23010;DHT22;11671;49.990;8.028;2023-03-01T01:02:37;1.30;99.90
23010;DHT22;11671;49.990;8.028;2023-03-01T01:05:03;1.30;99.90
23010;DHT22;11671;49.990;8.028;2023-03-01T01:07:29;1.40;99.90
23010;DHT22;11671;49.990;8.028;2023-03-01T01:09:54;1.40;99.90
23010;DHT22;11671;49.990;8.028;2023-03-01T01:12:20;1.40;99.90
23010;DHT22;11671;49.990;8.028;2023-03-01T01:14:46;1.40;99.90
23010;DHT22;11671;49.990;8.028;2023-03-01T01:17:11;1.40;99.90
23010;DHT22;11671;49.990;8.028;2023-03-01T01:19:37;1.40;99.90
23010;DHT22;11671;49.990;8.028;2023-03-01T01:22:02;1.40;99.90
23010;DHT22;11671;49.990;8.028;2023-03-01T01:24:28;1.40;99.90
23010;DHT22;11671;49.990;8.028;2023-03-01T01:26:54;1.40;99.90
23010;DHT22;11671;49.990;8.028;2023-03-01T01:29:20;1.40;99.90
23010;DHT22;11671;49.990;8.028;2023-03-01T01:31:45;1.40;99.90
23010;DHT22;11671;49.990;8.028;2023-03-01T01:34:16;1.30;99.90
23010;DHT22;11671;49.990;8.028;2023-03-01T01:36:43;1.30;99.90
23010;DHT22;11671;49.990;8.028;2023-03-01T01:39:09;1.30;99.90
23010;DHT22;11671;49.990;8.028;2023-03-01T01:41:40;1.30;99.90
23010;DHT22;11671;49.990;8.028;2023-03-01T01:44:22;1.30;99.90
23010;DHT22;11671;49.990;8.028;2023-03-01T01:47:04;1.30;99.90
23010;DHT22;11671;49.990;8.028;2023-03-01T01:57:27;1.30;99.90
23010;DHT22;11671;49.990;8.028;2023-03-01T01:59:57;1.30;99.90
23010;DHT22;11671;49.990;8.028;2023-03-01T02:02:24;1.20;99.90
23010;DHT22;11671;49.990;8.028;2023-03-01T02:04:54;1.20;99.90
23010;DHT22;11671;49.990;8.028;2023-03-01T02:07:24;1.20;99.90
23010;DHT22;11671;49.990;8.028;2023-03-01T02:09:52;1.30;99.90
23010;DHT22;11671;49.990;8.028;2023-03-01T02:12:21;1.30;99.90
23010;DHT22;11671;49.990;8.028;2023-03-01T02:14:48;1.30;99.90
23010;DHT22;11671;49.990;8.028;2023-03-01T02:17:15;1.30;99.90
23010;DHT22;11671;49.990;8.028;2023-03-01T02:20:07;1.30;99.90
23010;DHT22;11671;49.990;8.028;2023-03-01T02:22:38;1.30;99.90
23010;DHT22;11671;49.990;8.028;2023-03-01T02:28:25;1.30;99.90
23010;DHT22;11671;49.990;8.028;2023-03-01T02:30:50;1.30;99.90
23010;DHT22;11671;49.990;8.028;2023-03-01T02:33:36;1.20;99.90
23010;DHT22;11671;49.990;8.028;2023-03-01T02:36:06;1.20;99.90
23010;DHT22;11671;49.990;8.028;2023-03-01T02:38:32;1.20;99.90
23010;DHT22;11671;49.990;8.028;2023-03-01T02:40:58;1.20;99.90
23010;DHT22;11671;49.990;8.028;2023-03-01T02:43:30;1.20;99.90
23010;DHT22;11671;49.990;8.028;2023-03-01T02:45:59;1.10;99.90
23010;DHT22;11671;49.990;8.028;2023-03-01T02:48:27;1.10;99.90
23010;DHT22;11671;49.990;8.028;2023-03-01T02:51:07;1.10;99.90
23010;DHT22;11671;49.990;8.028;2023-03-01T02:53:41;1.10;99.90
23010;DHT22;11671;49.990;8.028;2023-03-01T02:56:10;1.10;99.90
23010;DHT22;11671;49.990;8.028;2023-03-01T02:58:40;1.10;99.90
23010;DHT22;11671;49.990;8.028;2023-03-01T03:01:12;1.20;99.90
23010;DHT22;11671;49.990;8.028;2023-03-01T03:03:40;1.20;99.90
23010;DHT22;11671;49.990;8.028;2023-03-01T03:06:06;1.30;99.90
23010;DHT22;11671;49.990;8.028;2023-03-01T03:08:31;1.30;99.90
23010;DHT22;11671;49.990;8.028;2023-03-01T03:10:57;1.30;99.90
23010;DHT22;11671;49.990;8.028;2023-03-01T03:13:23;1.30;99.90
23010;DHT22;11671;49.990;8.028;2023-03-01T03:15:54;1.30;99.90
23010;DHT22;11671;49.990;8.028;2023-03-01T03:18:20;1.30;99.90
23010;DHT22;11671;49.990;8.028;2023-03-01T03:20:45;1.30;99.90
23010;DHT22;11671;49.990;8.028;2023-03-01T03:23:11;1.40;99.90
23010;DHT22;11671;49.990;8.028;2023-03-01T03:25:37;1.40;99.90
23010;DHT22;11671;49.990;8.028;2023-03-01T03:28:04;1.40;99.90
23010;DHT22;11671;49.990;8.028;2023-03-01T03:30:36;1.30;99.90
23010;DHT22;11671;49.990;8.028;2023-03-01T03:33:05;1.30;99.90
23010;DHT22;11671;49.990;8.028;2023-03-01T03:35:40;1.30;99.90
23010;DHT22;11671;49.990;8.028;2023-03-01T03:38:08;1.30;99.90
23010;DHT22;11671;49.990;8.028;2023-03-01T03:40:43;1.40;99.90
23010;DHT22;11671;49.990;8.028;2023-03-01T03:43:14;1.30;99.90
23010;DHT22;11671;49.990;8.028;2023-03-01T03:45:41;1.30;99.90
23010;DHT22;11671;49.990;8.028;2023-03-01T03:48:08;1.30;99.90
23010;DHT22;11671;49.990;8.028;2023-03-01T03:50:35;1.30;99.90
23010;DHT22;11671;49.990;8.028;2023-03-01T03:53:02;1.30;99.90
23010;DHT22;11671;49.990;8.028;2023-03-01T03:55:28;1.30;99.90
23010;DHT22;11671;49.990;8.028;2023-03-01T03:58:00;1.30;99.90
23010;DHT22;11671;49.990;8.028;2023-03-01T04:00:39;1.30;99.90
23010;DHT22;11671;49.990;8.028;2023-03-01T04:03:05;1.30;99.90
23010;DHT22;11671;49.990;8.028;2023-03-01T04:05:31;1.30;99.90
23010;DHT22;11671;49.990;8.028;2023-03-01T04:07:57;1.20;99.90
23010;DHT22;11671;49.990;8.028;2023-03-01T04:10:31;1.20;99.90
23010;DHT22;11671;49.990;8.028;2023-03-01T04:12:57;1.10;99.90
23010;DHT22;11671;49.990;8.028;2023-03-01T04:15:24;1.10;99.90
23010;DHT22;11671;49.990;8.028;2023-03-01T04:17:51;1.10;99.90
23010;DHT22;11671;49.990;8.028;2023-03-01T04:20:23;1.10;99.90
23010;DHT22;11671;49.990;8.028;2023-03-01T04:22:55;1.10;99.90
23010;DHT22;11671;49.990;8.028;2023-03-01T04:25:22;1.10;99.90
23010;DHT22;11671;49.990;8.028;2023-03-01T04:27:48;1.10;99.90
23010;DHT22;11671;49.990;8.028;2023-03-01T04:30:14;1.00;99.90
23010;DHT22;11671;49.990;8.028;2023-03-01T04:32:39;1.00;99.90
23010;DHT22;11671;49.990;8.028;2023-03-01T04:35:05;1.00;99.90
23010;DHT22;11671;49.990;8.028;2023-03-01T04:37:31;0.90;99.90
23010;DHT22;11671;49.990;8.028;2023-03-01T04:39:57;0.90;99.90
23010;DHT22;11671;49.990;8.028;2023-03-01T04:42:22;0.90;99.90
23010;DHT22;11671;49.990;8.028;2023-03-01T04:44:48;0.90;99.90
23010;DHT22;11671;49.990;8.028;2023-03-01T04:47:16;0.80;99.90
23010;DHT22;11671;49.990;8.028;2023-03-01T04:49:42;0.80;99.90
23010;DHT22;11671;49.990;8.028;2023-03-01T04:52:08;0.90;99.90
23010;DHT22;11671;49.990;8.028;2023-03-01T04:54:35;0.90;99.90
23010;DHT22;11671;49.990;8.028;2023-03-01T04:57:02;0.90;99.90
23010;DHT22;11671;49.990;8.028;2023-03-01T04:59:28;0.90;99.90
23010;DHT22;11671;49.990;8.028;2023-03-01T05:01:55;0.90;99.90
23010;DHT22;11671;49.990;8.028;2023-03-01T05:04:22;0.90;99.90
23010;DHT22;11671;49.990;8.028;2023-03-01T05:06:48;0.90;99.90
23010;DHT22;11671;49.990;8.028;2023-03-01T05:09:14;0.90;99.90
23010;DHT22;11671;49.990;8.028;2023-03-01T05:11:39;0.90;99.90
23010;DHT22;11671;49.990;8.028;2023-03-01T05:14:06;0.80;99.90
23010;DHT22;11671;49.990;8.028;2023-03-01T05:16:32;0.90;99.90
23010;DHT22;11671;49.990;8.028;2023-03-01T05:18:58;0.90;99.90
23010;DHT22;11671;49.990;8.028;2023-03-01T05:21:25;0.90;99.90
23010;DHT22;11671;49.990;8.028;2023-03-01T05:23:50;1.00;99.90
23010;DHT22;11671;49.990;8.028;2023-03-01T05:26:19;0.90;99.90
23010;DHT22;11671;49.990;8.028;2023-03-01T05:28:44;0.90;99.90
23010;DHT22;11671;49.990;8.028;2023-03-01T05:31:10;1.00;99.90
23010;DHT22;11671;49.990;8.028;2023-03-01T05:33:36;0.90;99.90
23010;DHT22;11671;49.990;8.028;2023-03-01T05:36:03;0.90;99.90
23010;DHT22;11671;49.990;8.028;2023-03-01T05:38:29;0.90;99.90
23010;DHT22;11671;49.990;8.028;2023-03-01T05:40:55;0.90;99.90
23010;DHT22;11671;49.990;8.028;2023-03-01T05:43:21;0.90;99.90
23010;DHT22;11671;49.990;8.028;2023-03-01T05:45:46;0.90;99.90
23010;DHT22;11671;49.990;8.028;2023-03-01T05:48:13;0.90;99.90
23010;DHT22;11671;49.990;8.028;2023-03-01T05:50:41;0.90;99.90
23010;DHT22;11671;49.990;8.028;2023-03-01T05:53:13;0.90;99.90
23010;DHT22;11671;49.990;8.028;2023-03-01T05:55:39;0.90;99.90
23010;DHT22;11671;49.990;8.028;2023-03-01T05:58:07;1.00;99.90
23010;DHT22;11671;49.990;8.028;2023-03-01T06:00:34;0.90;99.90
23010;DHT22;11671;49.990;8.028;2023-03-01T06:03:01;0.90;99.90
23010;DHT22;11671;49.990;8.028;2023-03-01T06:05:27;0.90;99.90
23010;DHT22;11671;49.990;8.028;2023-03-01T06:07:53;0.90;99.90
23010;DHT22;11671;49.990;8.028;2023-03-01T06:10:21;1.00;99.90
23010;DHT22;11671;49.990;8.028;2023-03-01T06:12:47;1.00;99.90
23010;DHT22;11671;49.990;8.028;2023-03-01T06:15:14;0.90;99.90
23010;DHT22;11671;49.990;8.028;2023-03-01T06:17:42;0.90;99.90
23010;DHT22;11671;49.990;8.028;2023-03-01T06:20:19;0.90;99.90
23010;DHT22;11671;49.990;8.028;2023-03-01T06:22:46;0.90;99.90
23010;DHT22;11671;49.990;8.028;2023-03-01T06:25:14;0.80;99.90
23010;DHT22;11671;49.990;8.028;2023-03-01T06:27:40;0.90;99.90
23010;DHT22;11671;49.990;8.028;2023-03-01T06:30:06;1.00;99.90
23010;DHT22;11671;49.990;8.028;2023-03-01T06:32:33;1.10;99.90
23010;DHT22;11671;49.990;8.028;2023-03-01T06:34:59;1.10;99.90
23010;DHT22;11671;49.990;8.028;2023-03-01T06:37:28;1.20;99.90
23010;DHT22;11671;49.990;8.028;2023-03-01T06:39:53;1.20;99.90
23010;DHT22;11671;49.990;8.028;2023-03-01T06:42:19;1.30;99.90
23010;DHT22;11671;49.990;8.028;2023-03-01T06:44:45;1.40;99.90
23010;DHT22;11671;49.990;8.028;2023-03-01T06:47:11;1.50;99.90
23010;DHT22;11671;49.990;8.028;2023-03-01T06:49:36;1.50;99.90
23010;DHT22;11671;49.990;8.028;2023-03-01T06:52:02;1.50;99.90
23010;DHT22;11671;49.990;8.028;2023-03-01T06:54:28;1.60;99.90
23010;DHT22;11671;49.990;8.028;2023-03-01T06:56:53;1.80;99.90
23010;DHT22;11671;49.990;8.028;2023-03-01T06:59:19;1.80;99.90
23010;DHT22;11671;49.990;8.028;2023-03-01T07:01:45;1.90;99.90
23010;DHT22;11671;49.990;8.028;2023-03-01T07:04:12;2.00;99.90
23010;DHT22;11671;49.990;8.028;2023-03-01T07:06:37;2.00;99.90
23010;DHT22;11671;49.990;8.028;2023-03-01T07:09:03;2.10;99.90
23010;DHT22;11671;49.990;8.028;2023-03-01T07:13:00;2.20;99.90
23010;DHT22;11671;49.990;8.028;2023-03-01T07:15:27;2.50;99.90
23010;DHT22;11671;49.990;8.028;2023-03-01T07:17:52;2.60;99.90
23010;DHT22;11671;49.990;8.028;2023-03-01T07:20:18;2.80;99.90
23010;DHT22;11671;49.990;8.028;2023-03-01T07:22:44;2.90;99.90
23010;DHT22;11671;49.990;8.028;2023-03-01T07:25:10;3.10;99.90
23010;DHT22;11671;49.990;8.028;2023-03-01T07:27:36;3.30;99.90
23010;DHT22;11671;49.990;8.028;2023-03-01T07:30:02;3.50;99.90
23010;DHT22;11671;49.990;8.028;2023-03-01T07:32:28;3.60;99.90
23010;DHT22;11671;49.990;8.028;2023-03-01T07:34:53;3.70;99.90
23010;DHT22;11671;49.990;8.028;2023-03-01T07:37:19;3.90;99.90
23010;DHT22;11671;49.990;8.028;2023-03-01T07:39:44;4.00;99.90
23010;DHT22;11671;49.990;8.028;2023-03-01T07:42:10;4.10;99.90
23010;DHT22;11671;49.990;8.028;2023-03-01T07:44:35;4.50;99.90
23010;DHT22;11671;49.990;8.028;2023-03-01T07:47:02;4.70;99.90
23010;DHT22;11671;49.990;8.028;2023-03-01T07:49:28;4.80;99.90
23010;DHT22;11671;49.990;8.028;2023-03-01T07:51:53;5.00;99.90
23010;DHT22;11671;49.990;8.028;2023-03-01T07:54:19;5.30;99.90
23010;DHT22;11671;49.990;8.028;2023-03-01T07:56:44;5.30;99.90
23010;DHT22;11671;49.990;8.028;2023-03-01T07:59:10;5.40;99.90
23010;DHT22;11671;49.990;8.028;2023-03-01T08:01:35;5.70;99.90
23010;DHT22;11671;49.990;8.028;2023-03-01T08:04:01;5.80;99.90
23010;DHT22;11671;49.990;8.028;2023-03-01T08:06:27;6.00;99.90
23010;DHT22;11671;49.990;8.028;2023-03-01T08:08:52;6.20;99.90
23010;DHT22;11671;49.990;8.028;2023-03-01T08:11:20;6.00;99.90
23010;DHT22;11671;49.990;8.028;2023-03-01T08:13:47;6.10;99.90
23010;DHT22;11671;49.990;8.028;2023-03-01T08:16:14;6.30;99.90
23010;DHT22;11671;49.990;8.028;2023-03-01T08:18:41;6.30;99.90
23010;DHT22;11671;49.990;8.028;2023-03-01T08:21:10;6.40;99.90
23010;DHT22;11671;49.990;8.028;2023-03-01T08:23:39;6.40;99.90
23010;DHT22;11671;49.990;8.028;2023-03-01T08:26:06;6.40;99.90
23010;DHT22;11671;49.990;8.028;2023-03-01T08:28:32;6.70;99.90
23010;DHT22;11671;49.990;8.028;2023-03-01T08:30:58;6.90;99.90
23010;DHT22;11671;49.990;8.028;2023-03-01T08:33:23;6.80;99.90
23010;DHT22;11671;49.990;8.028;2023-03-01T08:35:49;6.80;99.90
23010;DHT22;11671;49.990;8.028;2023-03-01T08:38:14;6.80;99.90
23010;DHT22;11671;49.990;8.028;2023-03-01T08:40:40;7.10;99.90
23010;DHT22;11671;49.990;8.028;2023-03-01T08:43:05;7.30;99.90
23010;DHT22;11671;49.990;8.028;2023-03-01T08:45:31;7.60;99.90
23010;DHT22;11671;49.990;8.028;2023-03-01T08:47:57;7.80;99.90
23010;DHT22;11671;49.990;8.028;2023-03-01T08:50:23;8.00;99.90
23010;DHT22;11671;49.990;8.028;2023-03-01T08:52:49;7.90;99.90
23010;DHT22;11671;49.990;8.028;2023-03-01T08:55:15;7.70;99.90
23010;DHT22;11671;49.990;8.028;2023-03-01T08:57:43;7.60;99.90
23010;DHT22;11671;49.990;8.028;2023-03-01T09:00:09;7.50;99.90
23010;DHT22;11671;49.990;8.028;2023-03-01T09:02:37;7.40;99.90
23010;DHT22;11671;49.990;8.028;2023-03-01T09:05:03;7.30;99.90
23010;DHT22;11671;49.990;8.028;2023-03-01T09:07:28;7.30;99.90
23010;DHT22;11671;49.990;8.028;2023-03-01T09:09:54;7.20;99.90
23010;DHT22;11671;49.990;8.028;2023-03-01T09:12:22;7.10;99.90
23010;DHT22;11671;49.990;8.028;2023-03-01T09:14:50;7.00;99.90
23010;DHT22;11671;49.990;8.028;2023-03-01T09:17:15;7.20;99.90
23010;DHT22;11671;49.990;8.028;2023-03-01T09:19:41;7.10;99.90
23010;DHT22;11671;49.990;8.028;2023-03-01T09:22:06;7.00;99.90
23010;DHT22;11671;49.990;8.028;2023-03-01T09:24:32;7.00;99.90
23010;DHT22;11671;49.990;8.028;2023-03-01T09:26:58;7.00;99.90
23010;DHT22;11671;49.990;8.028;2023-03-01T09:29:23;7.00;99.90
23010;DHT22;11671;49.990;8.028;2023-03-01T09:31:49;7.10;99.90
23010;DHT22;11671;49.990;8.028;2023-03-01T09:34:14;7.30;99.90
23010;DHT22;11671;49.990;8.028;2023-03-01T09:36:44;7.50;99.90
23010;DHT22;11671;49.990;8.028;2023-03-01T09:39:09;7.80;99.90
23010;DHT22;11671;49.990;8.028;2023-03-01T09:41:49;7.70;99.90
23010;DHT22;11671;49.990;8.028;2023-03-01T09:46:48;7.80;99.90
23010;DHT22;11671;49.990;8.028;2023-03-01T09:49:24;7.60;99.90
23010;DHT22;11671;49.990;8.028;2023-03-01T09:54:24;7.60;99.90
23010;DHT22;11671;49.990;8.028;2023-03-01T10:04:50;8.00;99.90
23010;DHT22;11671;49.990;8.028;2023-03-01T10:10:00;7.90;99.90
23010;DHT22;11671;49.990;8.028;2023-03-01T10:12:35;8.10;99.90
23010;DHT22;11671;49.990;8.028;2023-03-01T10:15:13;8.10;99.90
23010;DHT22;11671;49.990;8.028;2023-03-01T10:20:29;8.30;99.90
23010;DHT22;11671;49.990;8.028;2023-03-01T10:22:56;8.20;99.90
23010;DHT22;11671;49.990;8.028;2023-03-01T10:30:51;8.10;99.90
23010;DHT22;11671;49.990;8.028;2023-03-01T10:33:26;8.20;99.90
23010;DHT22;11671;49.990;8.028;2023-03-01T10:35:53;8.50;99.90
23010;DHT22;11671;49.990;8.028;2023-03-01T10:38:19;8.50;99.90
23010;DHT22;11671;49.990;8.028;2023-03-01T10:40:56;8.80;99.90
23010;DHT22;11671;49.990;8.028;2023-03-01T10:43:27;8.60;99.90
23010;DHT22;11671;49.990;8.028;2023-03-01T10:45:55;8.60;99.90
23010;DHT22;11671;49.990;8.028;2023-03-01T10:48:21;8.80;99.90
23010;DHT22;11671;49.990;8.028;2023-03-01T10:56:11;8.80;99.90
23010;DHT22;11671;49.990;8.028;2023-03-01T10:59:02;8.70;99.90
23010;DHT22;11671;49.990;8.028;2023-03-01T11:01:35;8.70;99.90
23010;DHT22;11671;49.990;8.028;2023-03-01T11:06:37;8.80;99.90
23010;DHT22;11671;49.990;8.028;2023-03-01T11:09:19;9.00;99.90
23010;DHT22;11671;49.990;8.028;2023-03-01T11:11:46;9.20;99.90
23010;DHT22;11671;49.990;8.028;2023-03-01T11:14:20;9.30;99.90
23010;DHT22;11671;49.990;8.028;2023-03-01T11:16:48;9.30;99.90
23010;DHT22;11671;49.990;8.028;2023-03-01T11:19:18;9.50;99.90
23010;DHT22;11671;49.990;8.028;2023-03-01T11:21:52;9.80;99.90
23010;DHT22;11671;49.990;8.028;2023-03-01T11:24:19;9.80;99.90
23010;DHT22;11671;49.990;8.028;2023-03-01T11:26:53;9.80;99.90
23010;DHT22;11671;49.990;8.028;2023-03-01T11:29:30;9.50;99.90
23010;DHT22;11671;49.990;8.028;2023-03-01T11:32:00;9.60;99.90
23010;DHT22;11671;49.990;8.028;2023-03-01T11:34:47;9.80;99.90
23010;DHT22;11671;49.990;8.028;2023-03-01T11:40:18;10.10;99.90
23010;DHT22;11671;49.990;8.028;2023-03-01T11:45:52;9.90;99.90
23010;DHT22;11671;49.990;8.028;2023-03-01T11:48:44;9.90;99.90
23010;DHT22;11671;49.990;8.028;2023-03-01T11:59:21;10.10;99.90
23010;DHT22;11671;49.990;8.028;2023-03-01T12:02:00;10.20;99.90
23010;DHT22;11671;49.990;8.028;2023-03-01T12:04:54;10.10;99.90
23010;DHT22;11671;49.990;8.028;2023-03-01T12:08:01;10.00;99.90
23010;DHT22;11671;49.990;8.028;2023-03-01T12:10:27;10.00;99.90
23010;DHT22;11671;49.990;8.028;2023-03-01T12:16:24;10.40;99.90
23010;DHT22;11671;49.990;8.028;2023-03-01T12:19:08;10.50;99.90
23010;DHT22;11671;49.990;8.028;2023-03-01T12:27:23;10.70;99.40
23010;DHT22;11671;49.990;8.028;2023-03-01T12:41:41;11.30;96.70
23010;DHT22;11671;49.990;8.028;2023-03-01T12:44:39;11.30;97.00
23010;DHT22;11671;49.990;8.028;2023-03-01T12:52:43;11.30;95.30
23010;DHT22;11671;49.990;8.028;2023-03-01T12:55:34;11.30;95.40
23010;DHT22;11671;49.990;8.028;2023-03-01T13:01:08;11.40;94.90
23010;DHT22;11671;49.990;8.028;2023-03-01T13:04:21;11.70;93.80
23010;DHT22;11671;49.990;8.028;2023-03-01T13:36:09;12.20;92.20
23010;DHT22;11671;49.990;8.028;2023-03-01T13:41:04;12.40;90.40
23010;DHT22;11671;49.990;8.028;2023-03-01T13:43:38;12.30;91.20
23010;DHT22;11671;49.990;8.028;2023-03-01T13:46:22;12.20;91.20
23010;DHT22;11671;49.990;8.028;2023-03-01T13:48:54;12.30;91.90
23010;DHT22;11671;49.990;8.028;2023-03-01T13:51:25;12.00;91.60
23010;DHT22;11671;49.990;8.028;2023-03-01T13:53:51;11.40;91.90
23010;DHT22;11671;49.990;8.028;2023-03-01T13:56:29;11.30;92.80
23010;DHT22;11671;49.990;8.028;2023-03-01T14:01:30;11.50;92.80
23010;DHT22;11671;49.990;8.028;2023-03-01T14:03:57;11.40;93.00
23010;DHT22;11671;49.990;8.028;2023-03-01T14:06:28;11.30;92.80
23010;DHT22;11671;49.990;8.028;2023-03-01T14:11:42;11.50;94.20
23010;DHT22;11671;49.990;8.028;2023-03-01T14:14:45;11.50;94.00
23010;DHT22;11671;49.990;8.028;2023-03-01T14:20:00;11.10;94.80
23010;DHT22;11671;49.990;8.028;2023-03-01T14:22:29;11.10;95.60
23010;DHT22;11671;49.990;8.028;2023-03-01T14:25:30;11.50;95.60
23010;DHT22;11671;49.990;8.028;2023-03-01T14:30:32;11.10;95.40
23010;DHT22;11671;49.990;8.028;2023-03-01T14:33:02;11.00;95.40
23010;DHT22;11671;49.990;8.028;2023-03-01T14:35:30;10.90;95.50
23010;DHT22;11671;49.990;8.028;2023-03-01T14:37:57;10.80;95.60
23010;DHT22;11671;49.990;8.028;2023-03-01T14:40:35;10.70;96.70
23010;DHT22;11671;49.990;8.028;2023-03-01T14:43:09;10.80;96.80
23010;DHT22;11671;49.990;8.028;2023-03-01T14:45:35;11.00;97.70
23010;DHT22;11671;49.990;8.028;2023-03-01T14:48:02;10.80;97.30
23010;DHT22;11671;49.990;8.028;2023-03-01T14:50:33;10.80;97.50
23010;DHT22;11671;49.990;8.028;2023-03-01T14:53:02;10.80;98.10
23010;DHT22;11671;49.990;8.028;2023-03-01T14:55:37;10.60;97.90
23010;DHT22;11671;49.990;8.028;2023-03-01T14:58:11;10.50;98.20
23010;DHT22;11671;49.990;8.028;2023-03-01T15:00:37;10.40;98.70
23010;DHT22;11671;49.990;8.028;2023-03-01T15:03:35;10.20;98.90
23010;DHT22;11671;49.990;8.028;2023-03-01T15:06:06;10.10;99.10
23010;DHT22;11671;49.990;8.028;2023-03-01T15:08:33;10.00;99.80
23010;DHT22;11671;49.990;8.028;2023-03-01T15:11:15;10.00;99.90
23010;DHT22;11671;49.990;8.028;2023-03-01T15:13:42;10.00;99.90
23010;DHT22;11671;49.990;8.028;2023-03-01T15:16:30;10.10;99.90
23010;DHT22;11671;49.990;8.028;2023-03-01T15:21:27;9.90;99.90
23010;DHT22;11671;49.990;8.028;2023-03-01T15:27:12;9.90;99.90
23010;DHT22;11671;49.990;8.028;2023-03-01T15:29:34;9.80;99.90
23010;DHT22;11671;49.990;8.028;2023-03-01T15:32:33;9.80;99.90
23010;DHT22;11671;49.990;8.028;2023-03-01T15:35:01;9.60;99.90
23010;DHT22;11671;49.990;8.028;2023-03-01T15:37:48;9.70;99.90
23010;DHT22;11671;49.990;8.028;2023-03-01T15:40:32;9.60;99.90
23010;DHT22;11671;49.990;8.028;2023-03-01T15:43:00;9.40;99.90
23010;DHT22;11671;49.990;8.028;2023-03-01T15:45:27;9.50;99.90
23010;DHT22;11671;49.990;8.028;2023-03-01T15:50:26;9.50;99.90
23010;DHT22;11671;49.990;8.028;2023-03-01T15:52:53;9.50;99.90
23010;DHT22;11671;49.990;8.028;2023-03-01T15:55:20;9.30;99.90
23010;DHT22;11671;49.990;8.028;2023-03-01T15:57:47;9.20;99.90
23010;DHT22;11671;49.990;8.028;2023-03-01T16:00:14;9.20;99.90
23010;DHT22;11671;49.990;8.028;2023-03-01T16:02:41;9.20;99.90
23010;DHT22;11671;49.990;8.028;2023-03-01T16:05:27;9.10;99.90
23010;DHT22;11671;49.990;8.028;2023-03-01T16:07:54;9.10;99.90
23010;DHT22;11671;49.990;8.028;2023-03-01T16:10:20;9.00;99.90
23010;DHT22;11671;49.990;8.028;2023-03-01T16:12:46;9.00;99.90
23010;DHT22;11671;49.990;8.028;2023-03-01T16:15:18;8.90;99.90
23010;DHT22;11671;49.990;8.028;2023-03-01T16:17:44;8.90;99.90
23010;DHT22;11671;49.990;8.028;2023-03-01T16:20:10;8.80;99.90
23010;DHT22;11671;49.990;8.028;2023-03-01T16:22:35;8.80;99.90
23010;DHT22;11671;49.990;8.028;2023-03-01T16:25:01;8.70;99.90
23010;DHT22;11671;49.990;8.028;2023-03-01T16:27:28;8.70;99.90
23010;DHT22;11671;49.990;8.028;2023-03-01T16:29:53;8.60;99.90
23010;DHT22;11671;49.990;8.028;2023-03-01T16:32:19;8.50;99.90
23010;DHT22;11671;49.990;8.028;2023-03-01T16:34:45;8.50;99.90
23010;DHT22;11671;49.990;8.028;2023-03-01T16:37:13;8.50;99.90
23010;DHT22;11671;49.990;8.028;2023-03-01T16:39:38;8.50;99.90
23010;DHT22;11671;49.990;8.028;2023-03-01T16:42:04;8.50;99.90
23010;DHT22;11671;49.990;8.028;2023-03-01T16:44:29;8.50;99.90
23010;DHT22;11671;49.990;8.028;2023-03-01T16:46:55;8.50;99.90
23010;DHT22;11671;49.990;8.028;2023-03-01T16:49:21;8.40;99.90
23010;DHT22;11671;49.990;8.028;2023-03-01T16:51:46;8.30;99.90
23010;DHT22;11671;49.990;8.028;2023-03-01T16:54:12;8.20;99.90
23010;DHT22;11671;49.990;8.028;2023-03-01T16:56:37;8.20;99.90
23010;DHT22;11671;49.990;8.028;2023-03-01T16:59:05;8.10;99.90
23010;DHT22;11671;49.990;8.028;2023-03-01T17:01:31;8.10;99.90
23010;DHT22;11671;49.990;8.028;2023-03-01T17:04:03;8.00;99.90
23010;DHT22;11671;49.990;8.028;2023-03-01T17:06:28;8.00;99.90
23010;DHT22;11671;49.990;8.028;2023-03-01T17:08:54;8.00;99.90
23010;DHT22;11671;49.990;8.028;2023-03-01T17:11:20;7.90;99.90
23010;DHT22;11671;49.990;8.028;2023-03-01T17:13:46;7.80;99.90
23010;DHT22;11671;49.990;8.028;2023-03-01T17:16:14;7.70;99.90
23010;DHT22;11671;49.990;8.028;2023-03-01T17:18:41;7.70;99.90
23010;DHT22;11671;49.990;8.028;2023-03-01T17:21:07;7.70;99.90
23010;DHT22;11671;49.990;8.028;2023-03-01T17:23:33;7.70;99.90
23010;DHT22;11671;49.990;8.028;2023-03-01T17:26:00;7.60;99.90
23010;DHT22;11671;49.990;8.028;2023-03-01T17:28:28;7.60;99.90
23010;DHT22;11671;49.990;8.028;2023-03-01T17:30:54;7.70;99.90
23010;DHT22;11671;49.990;8.028;2023-03-01T17:33:20;7.60;99.90
23010;DHT22;11671;49.990;8.028;2023-03-01T17:35:45;7.60;99.90
23010;DHT22;11671;49.990;8.028;2023-03-01T17:38:14;7.60;99.90
23010;DHT22;11671;49.990;8.028;2023-03-01T17:40:41;7.50;99.90
23010;DHT22;11671;49.990;8.028;2023-03-01T17:43:08;7.50;99.90
23010;DHT22;11671;49.990;8.028;2023-03-01T17:45:36;7.50;99.90
23010;DHT22;11671;49.990;8.028;2023-03-01T17:48:02;7.50;99.90
23010;DHT22;11671;49.990;8.028;2023-03-01T17:50:28;7.40;99.90
23010;DHT22;11671;49.990;8.028;2023-03-01T17:52:53;7.40;99.90
23010;DHT22;11671;49.990;8.028;2023-03-01T17:55:20;7.30;99.90
23010;DHT22;11671;49.990;8.028;2023-03-01T17:57:46;7.30;99.90
23010;DHT22;11671;49.990;8.028;2023-03-01T18:00:13;7.20;99.90
23010;DHT22;11671;49.990;8.028;2023-03-01T18:02:40;7.10;99.90
23010;DHT22;11671;49.990;8.028;2023-03-01T18:05:06;7.10;99.90
23010;DHT22;11671;49.990;8.028;2023-03-01T18:07:35;7.10;99.90
23010;DHT22;11671;49.990;8.028;2023-03-01T18:10:02;7.10;99.90
23010;DHT22;11671;49.990;8.028;2023-03-01T18:12:30;7.10;99.90
23010;DHT22;11671;49.990;8.028;2023-03-01T18:14:55;7.00;99.90